sensor_id;sensor_type;location;lat;lon;timestamp;P1;durP1;ratioP1;P2;durP2;ratioP2
5085;SDS011;4715;51.660;7.082;2022-10-31T00:01:14;7.70;;;5.30;;
5085;SDS011;4715;51.660;7.082;2022-10-31T00:03:37;5.37;;;4.87;;
5085;SDS011;4715;51.660;7.082;2022-10-31T00:05:59;5.70;;;5.20;;
5085;SDS011;4715;51.660;7.082;2022-10-31T00:08:21;5.63;;;4.63;;
5085;SDS011;4715;51.660;7.082;2022-10-31T00:10:45;5.50;;;5.00;;
5085;SDS011;4715;51.660;7.082;2022-10-31T00:13:07;10.10;;;5.07;;
5085;SDS011;4715;51.660;7.082;2022-10-31T00:15:30;5.60;;;4.67;;
5085;SDS011;4715;51.660;7.082;2022-10-31T00:17:53;5.10;;;4.60;;
5085;SDS011;4715;51.660;7.082;2022-10-31T00:20:15;7.50;;;4.23;;
5085;SDS011;4715;51.660;7.082;2022-10-31T00:22:37;7.50;;;5.10;;
5085;SDS011;4715;51.660;7.082;2022-10-31T00:24:59;5.13;;;4.53;;
5085;SDS011;4715;51.660;7.082;2022-10-31T00:27:22;4.87;;;3.70;;
5085;SDS011;4715;51.660;7.082;2022-10-31T00:29:44;3.50;;;3.30;;
5085;SDS011;4715;51.660;7.082;2022-10-31T00:32:06;3.50;;;3.17;;
5085;SDS011;4715;51.660;7.082;2022-10-31T00:34:27;3.13;;;2.93;;
5085;SDS011;4715;51.660;7.082;2022-10-31T00:36:49;2.83;;;2.60;;
5085;SDS011;4715;51.660;7.082;2022-10-31T00:39:11;3.30;;;3.00;;
5085;SDS011;4715;51.660;7.082;2022-10-31T00:41:33;3.27;;;3.07;;
5085;SDS011;4715;51.660;7.082;2022-10-31T00:43:56;3.20;;;3.00;;
5085;SDS011;4715;51.660;7.082;2022-10-31T00:46:18;2.33;;;2.13;;
5085;SDS011;4715;51.660;7.082;2022-10-31T00:48:40;3.10;;;2.90;;
5085;SDS011;4715;51.660;7.082;2022-10-31T00:51:02;2.80;;;2.60;;
5085;SDS011;4715;51.660;7.082;2022-10-31T00:53:24;3.50;;;3.20;;
5085;SDS011;4715;51.660;7.082;2022-10-31T00:55:46;3.93;;;2.80;;
5085;SDS011;4715;51.660;7.082;2022-10-31T00:58:08;2.77;;;2.57;;
5085;SDS011;4715;51.660;7.082;2022-10-31T01:00:32;2.13;;;2.03;;
5085;SDS011;4715;51.660;7.082;2022-10-31T01:02:53;2.47;;;2.37;;
5085;SDS011;4715;51.660;7.082;2022-10-31T01:05:15;2.80;;;2.60;;
5085;SDS011;4715;51.660;7.082;2022-10-31T01:07:38;2.33;;;2.23;;
5085;SDS011;4715;51.660;7.082;2022-10-31T01:10:02;2.67;;;2.50;;
5085;SDS011;4715;51.660;7.082;2022-10-31T01:12:24;2.70;;;2.50;;
5085;SDS011;4715;51.660;7.082;2022-10-31T01:14:46;3.13;;;2.83;;
5085;SDS011;4715;51.660;7.082;2022-10-31T01:17:09;2.87;;;2.73;;
5085;SDS011;4715;51.660;7.082;2022-10-31T01:19:31;2.80;;;2.63;;
5085;SDS011;4715;51.660;7.082;2022-10-31T01:21:53;2.10;;;2.00;;
5085;SDS011;4715;51.660;7.082;2022-10-31T01:24:15;1.90;;;1.80;;
5085;SDS011;4715;51.660;7.082;2022-10-31T01:26:37;2.33;;;2.20;;
5085;SDS011;4715;51.660;7.082;2022-10-31T01:28:59;2.83;;;2.70;;
5085;SDS011;4715;51.660;7.082;2022-10-31T01:31:25;3.30;;;2.70;;
5085;SDS011;4715;51.660;7.082;2022-10-31T01:33:50;2.33;;;2.23;;
5085;SDS011;4715;51.660;7.082;2022-10-31T01:36:13;2.03;;;1.93;;
5085;SDS011;4715;51.660;7.082;2022-10-31T01:38:36;2.10;;;2.00;;
5085;SDS011;4715;51.660;7.082;2022-10-31T01:40:58;2.57;;;2.47;;
5085;SDS011;4715;51.660;7.082;2022-10-31T01:43:20;2.40;;;2.30;;
5085;SDS011;4715;51.660;7.082;2022-10-31T01:45:42;2.70;;;2.50;;
5085;SDS011;4715;51.660;7.082;2022-10-31T01:48:11;2.07;;;1.97;;
5085;SDS011;4715;51.660;7.082;2022-10-31T01:50:36;2.03;;;1.93;;
5085;SDS011;4715;51.660;7.082;2022-10-31T01:53:00;2.23;;;2.13;;
5085;SDS011;4715;51.660;7.082;2022-10-31T01:55:24;2.30;;;2.10;;
5085;SDS011;4715;51.660;7.082;2022-10-31T01:57:49;2.50;;;2.40;;
5085;SDS011;4715;51.660;7.082;2022-10-31T02:00:14;2.07;;;1.97;;
5085;SDS011;4715;51.660;7.082;2022-10-31T02:02:36;2.60;;;2.40;;
5085;SDS011;4715;51.660;7.082;2022-10-31T02:04:59;2.00;;;1.90;;
5085;SDS011;4715;51.660;7.082;2022-10-31T02:07:25;2.40;;;2.30;;
5085;SDS011;4715;51.660;7.082;2022-10-31T02:09:51;2.10;;;2.00;;
5085;SDS011;4715;51.660;7.082;2022-10-31T02:12:14;2.30;;;2.20;;
5085;SDS011;4715;51.660;7.082;2022-10-31T02:14:37;2.40;;;2.20;;
5085;SDS011;4715;51.660;7.082;2022-10-31T02:17:00;2.33;;;2.00;;
5085;SDS011;4715;51.660;7.082;2022-10-31T02:19:24;2.87;;;2.67;;
5085;SDS011;4715;51.660;7.082;2022-10-31T02:21:53;3.10;;;2.90;;
5085;SDS011;4715;51.660;7.082;2022-10-31T02:24:29;3.27;;;3.07;;
5085;SDS011;4715;51.660;7.082;2022-10-31T02:30:18;3.13;;;2.93;;
5085;SDS011;4715;51.660;7.082;2022-10-31T02:32:46;3.23;;;2.93;;
5085;SDS011;4715;51.660;7.082;2022-10-31T02:35:17;3.33;;;3.13;;
5085;SDS011;4715;51.660;7.082;2022-10-31T02:37:54;3.13;;;2.93;;
5085;SDS011;4715;51.660;7.082;2022-10-31T02:40:21;3.17;;;2.87;;
5085;SDS011;4715;51.660;7.082;2022-10-31T02:42:47;2.57;;;2.47;;
5085;SDS011;4715;51.660;7.082;2022-10-31T02:45:17;3.00;;;2.77;;
5085;SDS011;4715;51.660;7.082;2022-10-31T02:47:47;3.20;;;3.00;;
5085;SDS011;4715;51.660;7.082;2022-10-31T02:50:12;3.87;;;2.77;;
5085;SDS011;4715;51.660;7.082;2022-10-31T02:52:38;2.80;;;2.60;;
5085;SDS011;4715;51.660;7.082;2022-10-31T02:55:08;3.10;;;2.90;;
5085;SDS011;4715;51.660;7.082;2022-10-31T02:57:31;3.10;;;2.90;;
5085;SDS011;4715;51.660;7.082;2022-10-31T02:59:58;4.90;;;2.90;;
5085;SDS011;4715;51.660;7.082;2022-10-31T03:02:32;3.20;;;2.60;;
5085;SDS011;4715;51.660;7.082;2022-10-31T03:05:10;2.50;;;2.30;;
5085;SDS011;4715;51.660;7.082;2022-10-31T03:07:42;2.97;;;2.77;;
5085;SDS011;4715;51.660;7.082;2022-10-31T03:10:15;3.10;;;2.77;;
5085;SDS011;4715;51.660;7.082;2022-10-31T03:12:45;2.93;;;2.67;;
5085;SDS011;4715;51.660;7.082;2022-10-31T03:15:17;3.00;;;2.80;;
5085;SDS011;4715;51.660;7.082;2022-10-31T03:17:47;3.90;;;3.60;;
5085;SDS011;4715;51.660;7.082;2022-10-31T03:20:17;4.00;;;3.40;;
5085;SDS011;4715;51.660;7.082;2022-10-31T03:22:44;4.03;;;3.70;;
5085;SDS011;4715;51.660;7.082;2022-10-31T03:25:06;5.13;;;4.63;;
5085;SDS011;4715;51.660;7.082;2022-10-31T03:27:30;4.53;;;4.13;;
5085;SDS011;4715;51.660;7.082;2022-10-31T03:29:56;4.47;;;4.17;;
5085;SDS011;4715;51.660;7.082;2022-10-31T03:32:21;4.23;;;3.90;;
5085;SDS011;4715;51.660;7.082;2022-10-31T03:34:46;5.47;;;4.97;;
5085;SDS011;4715;51.660;7.082;2022-10-31T03:37:13;5.13;;;4.07;;
5085;SDS011;4715;51.660;7.082;2022-10-31T03:39:38;4.67;;;4.23;;
5085;SDS011;4715;51.660;7.082;2022-10-31T03:42:04;4.97;;;4.30;;
5085;SDS011;4715;51.660;7.082;2022-10-31T03:44:27;5.13;;;4.73;;
5085;SDS011;4715;51.660;7.082;2022-10-31T03:46:52;7.70;;;5.30;;
5085;SDS011;4715;51.660;7.082;2022-10-31T03:49:14;4.83;;;4.40;;
5085;SDS011;4715;51.660;7.082;2022-10-31T03:51:38;5.00;;;4.53;;
5085;SDS011;4715;51.660;7.082;2022-10-31T03:54:08;4.87;;;4.30;;
5085;SDS011;4715;51.660;7.082;2022-10-31T03:56:44;5.57;;;4.63;;
5085;SDS011;4715;51.660;7.082;2022-10-31T03:59:13;5.40;;;4.87;;
5085;SDS011;4715;51.660;7.082;2022-10-31T04:01:39;5.20;;;4.70;;
5085;SDS011;4715;51.660;7.082;2022-10-31T04:04:04;5.47;;;4.13;;
5085;SDS011;4715;51.660;7.082;2022-10-31T04:06:27;5.33;;;4.20;;
5085;SDS011;4715;51.660;7.082;2022-10-31T04:08:51;9.00;;;4.57;;
5085;SDS011;4715;51.660;7.082;2022-10-31T04:11:19;5.57;;;4.63;;
5085;SDS011;4715;51.660;7.082;2022-10-31T04:13:45;4.87;;;4.30;;
5085;SDS011;4715;51.660;7.082;2022-10-31T04:16:08;7.17;;;4.67;;
5085;SDS011;4715;51.660;7.082;2022-10-31T04:18:32;4.57;;;4.17;;
5085;SDS011;4715;51.660;7.082;2022-10-31T04:20:59;4.47;;;4.17;;
5085;SDS011;4715;51.660;7.082;2022-10-31T04:23:22;5.07;;;4.10;;
5085;SDS011;4715;51.660;7.082;2022-10-31T04:25:46;6.13;;;4.53;;
5085;SDS011;4715;51.660;7.082;2022-10-31T04:28:09;9.43;;;5.30;;
5085;SDS011;4715;51.660;7.082;2022-10-31T04:30:31;6.70;;;4.80;;
5085;SDS011;4715;51.660;7.082;2022-10-31T04:32:53;4.87;;;4.43;;
5085;SDS011;4715;51.660;7.082;2022-10-31T04:35:14;5.50;;;5.00;;
5085;SDS011;4715;51.660;7.082;2022-10-31T04:37:37;6.73;;;3.90;;
5085;SDS011;4715;51.660;7.082;2022-10-31T04:39:59;4.90;;;4.50;;
5085;SDS011;4715;51.660;7.082;2022-10-31T04:42:20;5.60;;;5.10;;
5085;SDS011;4715;51.660;7.082;2022-10-31T04:44:44;4.50;;;4.20;;
5085;SDS011;4715;51.660;7.082;2022-10-31T04:47:05;5.53;;;4.67;;
5085;SDS011;4715;51.660;7.082;2022-10-31T04:49:27;5.07;;;4.60;;
5085;SDS011;4715;51.660;7.082;2022-10-31T04:51:49;4.70;;;4.13;;
5085;SDS011;4715;51.660;7.082;2022-10-31T04:54:11;4.37;;;4.07;;
5085;SDS011;4715;51.660;7.082;2022-10-31T04:56:33;4.97;;;4.47;;
5085;SDS011;4715;51.660;7.082;2022-10-31T04:58:55;3.90;;;3.57;;
5085;SDS011;4715;51.660;7.082;2022-10-31T05:01:18;3.63;;;3.43;;
5085;SDS011;4715;51.660;7.082;2022-10-31T05:03:39;4.43;;;3.90;;
5085;SDS011;4715;51.660;7.082;2022-10-31T05:06:01;5.10;;;4.60;;
5085;SDS011;4715;51.660;7.082;2022-10-31T05:08:23;5.00;;;4.03;;
5085;SDS011;4715;51.660;7.082;2022-10-31T05:10:45;3.90;;;3.13;;
5085;SDS011;4715;51.660;7.082;2022-10-31T05:13:07;4.70;;;3.73;;
5085;SDS011;4715;51.660;7.082;2022-10-31T05:15:29;4.17;;;3.80;;
5085;SDS011;4715;51.660;7.082;2022-10-31T05:17:56;3.40;;;3.20;;
5085;SDS011;4715;51.660;7.082;2022-10-31T05:20:19;3.27;;;3.07;;
5085;SDS011;4715;51.660;7.082;2022-10-31T05:22:42;3.67;;;3.30;;
5085;SDS011;4715;51.660;7.082;2022-10-31T05:25:05;3.67;;;3.47;;
5085;SDS011;4715;51.660;7.082;2022-10-31T05:27:27;3.77;;;3.50;;
5085;SDS011;4715;51.660;7.082;2022-10-31T05:29:49;4.10;;;3.80;;
5085;SDS011;4715;51.660;7.082;2022-10-31T05:32:12;4.53;;;3.67;;
5085;SDS011;4715;51.660;7.082;2022-10-31T05:34:35;4.07;;;3.77;;
5085;SDS011;4715;51.660;7.082;2022-10-31T05:36:57;4.03;;;3.60;;
5085;SDS011;4715;51.660;7.082;2022-10-31T05:39:20;4.40;;;3.97;;
5085;SDS011;4715;51.660;7.082;2022-10-31T05:41:41;4.43;;;3.30;;
5085;SDS011;4715;51.660;7.082;2022-10-31T05:44:04;4.00;;;3.70;;
5085;SDS011;4715;51.660;7.082;2022-10-31T05:46:26;4.30;;;3.90;;
5085;SDS011;4715;51.660;7.082;2022-10-31T05:48:48;3.53;;;3.23;;
5085;SDS011;4715;51.660;7.082;2022-10-31T05:51:11;4.17;;;3.87;;
5085;SDS011;4715;51.660;7.082;2022-10-31T05:53:33;3.83;;;3.53;;
5085;SDS011;4715;51.660;7.082;2022-10-31T05:55:55;3.80;;;3.50;;
5085;SDS011;4715;51.660;7.082;2022-10-31T05:58:17;3.80;;;3.23;;
5085;SDS011;4715;51.660;7.082;2022-10-31T06:00:39;3.70;;;3.40;;
5085;SDS011;4715;51.660;7.082;2022-10-31T06:03:01;3.20;;;3.00;;
5085;SDS011;4715;51.660;7.082;2022-10-31T06:05:24;4.70;;;4.10;;
5085;SDS011;4715;51.660;7.082;2022-10-31T06:07:48;3.93;;;3.63;;
5085;SDS011;4715;51.660;7.082;2022-10-31T06:10:10;3.47;;;3.20;;
5085;SDS011;4715;51.660;7.082;2022-10-31T06:12:32;4.30;;;3.93;;
5085;SDS011;4715;51.660;7.082;2022-10-31T06:14:57;6.00;;;4.13;;
5085;SDS011;4715;51.660;7.082;2022-10-31T06:17:19;4.37;;;3.93;;
5085;SDS011;4715;51.660;7.082;2022-10-31T06:19:42;4.03;;;3.83;;
5085;SDS011;4715;51.660;7.082;2022-10-31T06:22:04;3.47;;;3.17;;
5085;SDS011;4715;51.660;7.082;2022-10-31T06:24:27;4.40;;;4.10;;
5085;SDS011;4715;51.660;7.082;2022-10-31T06:26:49;3.30;;;3.10;;
5085;SDS011;4715;51.660;7.082;2022-10-31T06:29:11;4.10;;;3.80;;
5085;SDS011;4715;51.660;7.082;2022-10-31T06:31:33;3.90;;;3.60;;
5085;SDS011;4715;51.660;7.082;2022-10-31T06:33:55;4.07;;;3.77;;
5085;SDS011;4715;51.660;7.082;2022-10-31T06:36:16;3.77;;;3.23;;
5085;SDS011;4715;51.660;7.082;2022-10-31T06:38:38;3.80;;;3.50;;
5085;SDS011;4715;51.660;7.082;2022-10-31T06:41:03;3.77;;;3.50;;
5085;SDS011;4715;51.660;7.082;2022-10-31T06:43:25;3.90;;;3.50;;
5085;SDS011;4715;51.660;7.082;2022-10-31T06:45:47;3.30;;;3.10;;
5085;SDS011;4715;51.660;7.082;2022-10-31T06:48:09;4.20;;;3.90;;
5085;SDS011;4715;51.660;7.082;2022-10-31T06:50:31;5.73;;;3.40;;
5085;SDS011;4715;51.660;7.082;2022-10-31T06:52:53;3.87;;;3.47;;
5085;SDS011;4715;51.660;7.082;2022-10-31T06:55:15;3.60;;;3.30;;
5085;SDS011;4715;51.660;7.082;2022-10-31T06:57:39;3.93;;;3.63;;
5085;SDS011;4715;51.660;7.082;2022-10-31T07:00:01;3.57;;;3.37;;
5085;SDS011;4715;51.660;7.082;2022-10-31T07:02:23;4.20;;;3.80;;
5085;SDS011;4715;51.660;7.082;2022-10-31T07:04:44;3.83;;;3.60;;
5085;SDS011;4715;51.660;7.082;2022-10-31T07:07:06;3.97;;;3.57;;
5085;SDS011;4715;51.660;7.082;2022-10-31T07:09:28;3.37;;;3.17;;
5085;SDS011;4715;51.660;7.082;2022-10-31T07:11:51;4.03;;;3.63;;
5085;SDS011;4715;51.660;7.082;2022-10-31T07:14:15;3.43;;;3.13;;
5085;SDS011;4715;51.660;7.082;2022-10-31T07:16:37;4.10;;;3.70;;
5085;SDS011;4715;51.660;7.082;2022-10-31T07:18:59;3.20;;;3.00;;
5085;SDS011;4715;51.660;7.082;2022-10-31T07:21:20;3.60;;;3.23;;
5085;SDS011;4715;51.660;7.082;2022-10-31T07:23:43;3.63;;;3.33;;
5085;SDS011;4715;51.660;7.082;2022-10-31T07:26:04;3.60;;;3.30;;
5085;SDS011;4715;51.660;7.082;2022-10-31T07:28:26;4.60;;;3.60;;
5085;SDS011;4715;51.660;7.082;2022-10-31T07:30:50;3.97;;;3.67;;
5085;SDS011;4715;51.660;7.082;2022-10-31T07:33:13;3.13;;;2.93;;
5085;SDS011;4715;51.660;7.082;2022-10-31T07:35:34;4.13;;;3.73;;
5085;SDS011;4715;51.660;7.082;2022-10-31T07:37:56;3.13;;;2.93;;
5085;SDS011;4715;51.660;7.082;2022-10-31T07:40:19;3.57;;;3.30;;
5085;SDS011;4715;51.660;7.082;2022-10-31T07:42:42;3.07;;;2.77;;
5085;SDS011;4715;51.660;7.082;2022-10-31T07:45:08;3.30;;;3.10;;
5085;SDS011;4715;51.660;7.082;2022-10-31T07:47:38;3.80;;;3.50;;
5085;SDS011;4715;51.660;7.082;2022-10-31T07:50:00;3.10;;;2.90;;
5085;SDS011;4715;51.660;7.082;2022-10-31T07:52:22;4.20;;;3.80;;
5085;SDS011;4715;51.660;7.082;2022-10-31T07:54:45;3.63;;;3.33;;
5085;SDS011;4715;51.660;7.082;2022-10-31T07:57:07;3.63;;;3.43;;
5085;SDS011;4715;51.660;7.082;2022-10-31T07:59:29;3.80;;;3.10;;
5085;SDS011;4715;51.660;7.082;2022-10-31T08:01:50;3.47;;;3.27;;
5085;SDS011;4715;51.660;7.082;2022-10-31T08:04:14;4.17;;;3.83;;
5085;SDS011;4715;51.660;7.082;2022-10-31T08:06:35;4.20;;;3.90;;
5085;SDS011;4715;51.660;7.082;2022-10-31T08:08:57;4.30;;;3.90;;
5085;SDS011;4715;51.660;7.082;2022-10-31T08:11:19;5.40;;;4.90;;
5085;SDS011;4715;51.660;7.082;2022-10-31T08:13:41;4.67;;;4.00;;
5085;SDS011;4715;51.660;7.082;2022-10-31T08:16:03;4.13;;;3.77;;
5085;SDS011;4715;51.660;7.082;2022-10-31T08:18:27;3.67;;;3.37;;
5085;SDS011;4715;51.660;7.082;2022-10-31T08:20:50;3.90;;;3.60;;
5085;SDS011;4715;51.660;7.082;2022-10-31T08:23:12;4.40;;;4.00;;
5085;SDS011;4715;51.660;7.082;2022-10-31T08:25:34;4.33;;;3.93;;
5085;SDS011;4715;51.660;7.082;2022-10-31T08:27:57;4.30;;;4.00;;
5085;SDS011;4715;51.660;7.082;2022-10-31T08:30:18;4.30;;;3.67;;
5085;SDS011;4715;51.660;7.082;2022-10-31T08:32:40;4.70;;;4.00;;
5085;SDS011;4715;51.660;7.082;2022-10-31T08:35:03;5.80;;;4.40;;
5085;SDS011;4715;51.660;7.082;2022-10-31T08:37:27;4.20;;;3.90;;
5085;SDS011;4715;51.660;7.082;2022-10-31T08:39:49;3.77;;;3.47;;
5085;SDS011;4715;51.660;7.082;2022-10-31T08:42:10;4.43;;;4.13;;
5085;SDS011;4715;51.660;7.082;2022-10-31T08:44:33;4.00;;;3.70;;
5085;SDS011;4715;51.660;7.082;2022-10-31T08:46:55;5.60;;;3.80;;
5085;SDS011;4715;51.660;7.082;2022-10-31T08:49:17;3.60;;;3.30;;
5085;SDS011;4715;51.660;7.082;2022-10-31T08:51:39;6.03;;;4.20;;
5085;SDS011;4715;51.660;7.082;2022-10-31T08:54:02;5.10;;;4.20;;
5085;SDS011;4715;51.660;7.082;2022-10-31T08:56:24;4.90;;;4.50;;
5085;SDS011;4715;51.660;7.082;2022-10-31T08:58:46;5.67;;;4.57;;
5085;SDS011;4715;51.660;7.082;2022-10-31T09:01:08;4.20;;;3.80;;
5085;SDS011;4715;51.660;7.082;2022-10-31T09:03:30;5.03;;;4.00;;
5085;SDS011;4715;51.660;7.082;2022-10-31T09:05:54;3.97;;;3.67;;
5085;SDS011;4715;51.660;7.082;2022-10-31T09:08:18;4.50;;;3.93;;
5085;SDS011;4715;51.660;7.082;2022-10-31T09:10:42;4.20;;;3.90;;
5085;SDS011;4715;51.660;7.082;2022-10-31T09:13:04;4.07;;;3.67;;
5085;SDS011;4715;51.660;7.082;2022-10-31T09:15:27;4.53;;;4.13;;
5085;SDS011;4715;51.660;7.082;2022-10-31T09:17:50;5.20;;;4.60;;
5085;SDS011;4715;51.660;7.082;2022-10-31T09:20:11;6.03;;;4.77;;
5085;SDS011;4715;51.660;7.082;2022-10-31T09:22:33;5.60;;;5.00;;
5085;SDS011;4715;51.660;7.082;2022-10-31T09:24:55;6.43;;;5.73;;
5085;SDS011;4715;51.660;7.082;2022-10-31T09:27:18;6.07;;;5.30;;
5085;SDS011;4715;51.660;7.082;2022-10-31T09:29:40;7.23;;;5.10;;
5085;SDS011;4715;51.660;7.082;2022-10-31T09:32:02;5.60;;;5.00;;
5085;SDS011;4715;51.660;7.082;2022-10-31T09:34:24;5.50;;;5.00;;
5085;SDS011;4715;51.660;7.082;2022-10-31T09:36:46;7.50;;;5.47;;
5085;SDS011;4715;51.660;7.082;2022-10-31T09:39:08;4.80;;;4.40;;
5085;SDS011;4715;51.660;7.082;2022-10-31T09:41:31;5.30;;;4.80;;
5085;SDS011;4715;51.660;7.082;2022-10-31T09:44:05;8.33;;;5.23;;
5085;SDS011;4715;51.660;7.082;2022-10-31T09:46:46;5.90;;;5.30;;
5085;SDS011;4715;51.660;7.082;2022-10-31T09:49:23;5.53;;;4.97;;
5085;SDS011;4715;51.660;7.082;2022-10-31T09:51:53;7.67;;;4.93;;
5085;SDS011;4715;51.660;7.082;2022-10-31T09:54:20;7.93;;;6.07;;
5085;SDS011;4715;51.660;7.082;2022-10-31T09:56:47;8.50;;;5.07;;
5085;SDS011;4715;51.660;7.082;2022-10-31T09:59:12;6.07;;;5.47;;
5085;SDS011;4715;51.660;7.082;2022-10-31T10:01:41;6.40;;;5.80;;
5085;SDS011;4715;51.660;7.082;2022-10-31T10:04:12;6.07;;;4.60;;
5085;SDS011;4715;51.660;7.082;2022-10-31T10:06:47;4.10;;;3.80;;
5085;SDS011;4715;51.660;7.082;2022-10-31T10:09:11;5.60;;;4.20;;
5085;SDS011;4715;51.660;7.082;2022-10-31T10:11:38;5.63;;;4.93;;
5085;SDS011;4715;51.660;7.082;2022-10-31T10:14:18;5.47;;;4.60;;
5085;SDS011;4715;51.660;7.082;2022-10-31T10:16:59;6.80;;;5.50;;
5085;SDS011;4715;51.660;7.082;2022-10-31T10:19:33;6.90;;;5.10;;
5085;SDS011;4715;51.660;7.082;2022-10-31T10:22:08;7.10;;;6.20;;
5085;SDS011;4715;51.660;7.082;2022-10-31T10:24:39;5.80;;;5.30;;
5085;SDS011;4715;51.660;7.082;2022-10-31T10:27:14;8.80;;;7.27;;
5085;SDS011;4715;51.660;7.082;2022-10-31T10:29:47;8.17;;;6.30;;
5085;SDS011;4715;51.660;7.082;2022-10-31T10:32:17;9.50;;;7.10;;
5085;SDS011;4715;51.660;7.082;2022-10-31T10:34:43;12.93;;;7.03;;
5085;SDS011;4715;51.660;7.082;2022-10-31T10:37:19;9.17;;;6.70;;
5085;SDS011;4715;51.660;7.082;2022-10-31T10:39:46;9.73;;;7.60;;
5085;SDS011;4715;51.660;7.082;2022-10-31T10:42:11;9.63;;;6.70;;
5085;SDS011;4715;51.660;7.082;2022-10-31T10:44:54;10.50;;;7.77;;
5085;SDS011;4715;51.660;7.082;2022-10-31T10:47:35;9.47;;;6.83;;
5085;SDS011;4715;51.660;7.082;2022-10-31T10:50:03;11.60;;;8.27;;
5085;SDS011;4715;51.660;7.082;2022-10-31T10:52:31;8.10;;;6.60;;
5085;SDS011;4715;51.660;7.082;2022-10-31T10:55:02;11.67;;;6.73;;
5085;SDS011;4715;51.660;7.082;2022-10-31T10:57:33;13.33;;;7.27;;
5085;SDS011;4715;51.660;7.082;2022-10-31T11:00:19;8.53;;;7.00;;
5085;SDS011;4715;51.660;7.082;2022-10-31T11:02:42;9.37;;;7.00;;
5085;SDS011;4715;51.660;7.082;2022-10-31T11:05:08;11.30;;;6.90;;
5085;SDS011;4715;51.660;7.082;2022-10-31T11:07:38;7.83;;;6.57;;
5085;SDS011;4715;51.660;7.082;2022-10-31T11:10:04;6.60;;;5.90;;
5085;SDS011;4715;51.660;7.082;2022-10-31T11:12:33;7.43;;;6.53;;
5085;SDS011;4715;51.660;7.082;2022-10-31T11:14:57;9.70;;;7.27;;
5085;SDS011;4715;51.660;7.082;2022-10-31T11:17:25;9.90;;;7.30;;
5085;SDS011;4715;51.660;7.082;2022-10-31T11:19:59;12.70;;;8.17;;
5085;SDS011;4715;51.660;7.082;2022-10-31T11:22:22;8.30;;;7.20;;
5085;SDS011;4715;51.660;7.082;2022-10-31T11:24:44;9.83;;;7.40;;
5085;SDS011;4715;51.660;7.082;2022-10-31T11:27:12;8.33;;;7.47;;
5085;SDS011;4715;51.660;7.082;2022-10-31T11:29:36;10.80;;;7.70;;
5085;SDS011;4715;51.660;7.082;2022-10-31T11:31:58;11.47;;;7.37;;
5085;SDS011;4715;51.660;7.082;2022-10-31T11:34:32;9.23;;;8.23;;
5085;SDS011;4715;51.660;7.082;2022-10-31T11:36:58;11.53;;;6.93;;
5085;SDS011;4715;51.660;7.082;2022-10-31T11:39:25;12.23;;;8.20;;
5085;SDS011;4715;51.660;7.082;2022-10-31T11:41:47;11.80;;;8.37;;
5085;SDS011;4715;51.660;7.082;2022-10-31T11:44:12;9.37;;;7.43;;
5085;SDS011;4715;51.660;7.082;2022-10-31T11:46:37;9.70;;;8.33;;
5085;SDS011;4715;51.660;7.082;2022-10-31T11:49:01;12.40;;;8.70;;
5085;SDS011;4715;51.660;7.082;2022-10-31T11:51:29;11.37;;;7.67;;
5085;SDS011;4715;51.660;7.082;2022-10-31T11:54:05;9.60;;;7.83;;
5085;SDS011;4715;51.660;7.082;2022-10-31T11:56:40;11.40;;;7.10;;
5085;SDS011;4715;51.660;7.082;2022-10-31T11:59:03;11.00;;;7.50;;
5085;SDS011;4715;51.660;7.082;2022-10-31T12:01:27;11.13;;;7.10;;
5085;SDS011;4715;51.660;7.082;2022-10-31T12:03:53;9.97;;;8.00;;
5085;SDS011;4715;51.660;7.082;2022-10-31T12:06:21;12.80;;;8.37;;
5085;SDS011;4715;51.660;7.082;2022-10-31T12:08:50;15.90;;;8.07;;
5085;SDS011;4715;51.660;7.082;2022-10-31T12:11:17;8.60;;;7.70;;
5085;SDS011;4715;51.660;7.082;2022-10-31T12:13:52;10.20;;;7.27;;
5085;SDS011;4715;51.660;7.082;2022-10-31T12:16:27;15.80;;;8.87;;
5085;SDS011;4715;51.660;7.082;2022-10-31T12:18:56;10.60;;;7.70;;
5085;SDS011;4715;51.660;7.082;2022-10-31T12:21:23;9.07;;;7.67;;
5085;SDS011;4715;51.660;7.082;2022-10-31T12:24:00;7.30;;;5.90;;
5085;SDS011;4715;51.660;7.082;2022-10-31T12:26:31;7.57;;;6.10;;
5085;SDS011;4715;51.660;7.082;2022-10-31T12:29:03;14.17;;;6.60;;
5085;SDS011;4715;51.660;7.082;2022-10-31T12:31:37;6.63;;;6.00;;
5085;SDS011;4715;51.660;7.082;2022-10-31T12:37:13;9.03;;;8.03;;
5085;SDS011;4715;51.660;7.082;2022-10-31T12:39:47;6.33;;;5.80;;
5085;SDS011;4715;51.660;7.082;2022-10-31T12:42:19;10.97;;;7.30;;
5085;SDS011;4715;51.660;7.082;2022-10-31T12:45:08;7.87;;;6.37;;
5085;SDS011;4715;51.660;7.082;2022-10-31T12:47:50;6.70;;;5.67;;
5085;SDS011;4715;51.660;7.082;2022-10-31T12:50:22;11.13;;;6.30;;
5085;SDS011;4715;51.660;7.082;2022-10-31T12:52:54;7.23;;;6.30;;
5085;SDS011;4715;51.660;7.082;2022-10-31T12:55:36;7.77;;;5.73;;
5085;SDS011;4715;51.660;7.082;2022-10-31T12:58:03;9.50;;;7.43;;
5085;SDS011;4715;51.660;7.082;2022-10-31T13:00:31;7.23;;;5.87;;
5085;SDS011;4715;51.660;7.082;2022-10-31T13:02:56;8.20;;;6.27;;
5085;SDS011;4715;51.660;7.082;2022-10-31T13:05:25;6.37;;;5.77;;
5085;SDS011;4715;51.660;7.082;2022-10-31T13:07:55;5.90;;;5.40;;
5085;SDS011;4715;51.660;7.082;2022-10-31T13:10:22;7.40;;;6.30;;
5085;SDS011;4715;51.660;7.082;2022-10-31T13:12:51;11.70;;;7.03;;
5085;SDS011;4715;51.660;7.082;2022-10-31T13:15:17;8.17;;;6.50;;
5085;SDS011;4715;51.660;7.082;2022-10-31T13:17:42;6.10;;;5.60;;
5085;SDS011;4715;51.660;7.082;2022-10-31T13:20:12;10.10;;;6.77;;
5085;SDS011;4715;51.660;7.082;2022-10-31T13:22:41;9.60;;;5.73;;
5085;SDS011;4715;51.660;7.082;2022-10-31T13:25:09;7.97;;;6.20;;
5085;SDS011;4715;51.660;7.082;2022-10-31T13:27:38;7.73;;;6.77;;
5085;SDS011;4715;51.660;7.082;2022-10-31T13:30:12;9.93;;;6.80;;
5085;SDS011;4715;51.660;7.082;2022-10-31T13:32:37;11.43;;;7.50;;
5085;SDS011;4715;51.660;7.082;2022-10-31T13:35:03;8.27;;;7.17;;
5085;SDS011;4715;51.660;7.082;2022-10-31T13:37:35;9.77;;;6.60;;
5085;SDS011;4715;51.660;7.082;2022-10-31T13:40:05;8.70;;;6.43;;
5085;SDS011;4715;51.660;7.082;2022-10-31T13:42:39;12.90;;;7.43;;
5085;SDS011;4715;51.660;7.082;2022-10-31T13:45:14;8.67;;;6.10;;
5085;SDS011;4715;51.660;7.082;2022-10-31T13:47:37;10.97;;;6.90;;
5085;SDS011;4715;51.660;7.082;2022-10-31T13:50:06;11.80;;;6.80;;
5085;SDS011;4715;51.660;7.082;2022-10-31T13:52:45;8.23;;;7.33;;
5085;SDS011;4715;51.660;7.082;2022-10-31T13:55:19;8.97;;;6.70;;
5085;SDS011;4715;51.660;7.082;2022-10-31T13:57:55;7.47;;;6.73;;
5085;SDS011;4715;51.660;7.082;2022-10-31T14:00:23;8.17;;;6.80;;
5085;SDS011;4715;51.660;7.082;2022-10-31T14:02:47;8.17;;;6.43;;
5085;SDS011;4715;51.660;7.082;2022-10-31T14:05:18;11.13;;;7.03;;
5085;SDS011;4715;51.660;7.082;2022-10-31T14:07:43;7.17;;;6.30;;
5085;SDS011;4715;51.660;7.082;2022-10-31T14:10:07;10.47;;;6.87;;
5085;SDS011;4715;51.660;7.082;2022-10-31T14:12:46;7.43;;;6.67;;
5085;SDS011;4715;51.660;7.082;2022-10-31T14:15:13;9.80;;;6.93;;
5085;SDS011;4715;51.660;7.082;2022-10-31T14:17:45;6.70;;;6.03;;
5085;SDS011;4715;51.660;7.082;2022-10-31T14:20:26;10.90;;;6.40;;
5085;SDS011;4715;51.660;7.082;2022-10-31T14:22:55;11.90;;;7.47;;
5085;SDS011;4715;51.660;7.082;2022-10-31T14:25:28;9.73;;;7.73;;
5085;SDS011;4715;51.660;7.082;2022-10-31T14:27:55;6.80;;;6.10;;
5085;SDS011;4715;51.660;7.082;2022-10-31T14:30:18;8.97;;;6.77;;
5085;SDS011;4715;51.660;7.082;2022-10-31T14:32:44;9.27;;;6.90;;
5085;SDS011;4715;51.660;7.082;2022-10-31T14:35:13;8.60;;;5.40;;
5085;SDS011;4715;51.660;7.082;2022-10-31T14:37:47;14.17;;;7.63;;
5085;SDS011;4715;51.660;7.082;2022-10-31T14:40:27;7.13;;;6.00;;
5085;SDS011;4715;51.660;7.082;2022-10-31T14:45:53;7.00;;;5.60;;
5085;SDS011;4715;51.660;7.082;2022-10-31T14:48:28;6.00;;;5.40;;
5085;SDS011;4715;51.660;7.082;2022-10-31T14:51:08;7.00;;;6.23;;
5085;SDS011;4715;51.660;7.082;2022-10-31T14:53:34;6.30;;;5.80;;
5085;SDS011;4715;51.660;7.082;2022-10-31T14:56:09;7.97;;;5.63;;
5085;SDS011;4715;51.660;7.082;2022-10-31T14:58:33;5.60;;;5.10;;
5085;SDS011;4715;51.660;7.082;2022-10-31T15:00:58;5.27;;;4.77;;
5085;SDS011;4715;51.660;7.082;2022-10-31T15:03:26;5.93;;;5.30;;
5085;SDS011;4715;51.660;7.082;2022-10-31T15:05:52;8.83;;;5.90;;
5085;SDS011;4715;51.660;7.082;2022-10-31T15:08:27;7.20;;;5.67;;
5085;SDS011;4715;51.660;7.082;2022-10-31T15:10:53;6.67;;;5.70;;
5085;SDS011;4715;51.660;7.082;2022-10-31T15:13:17;5.73;;;5.00;;
5085;SDS011;4715;51.660;7.082;2022-10-31T15:15:41;9.37;;;4.90;;